Logo AVAMET
Benvolgut visitant, si us plau, ingressa Recuperar contrasenya
AVAMET paisatges

Inforatge Xeraco centre

Dades diàries. Acumulats / Últims 30 dies disponibles

Data Temperatura (°C) Humitat rel. (%) Pressió rel. (hPa) Vent (km/h) Precipitació
Mínima Mitjana Màxima Amplitud
tèrmica
Mínima Mitjana Màxima Mínima Mitjana Màxima Predom. Mitjana Ràfega
màxima
Total
(mm)
Índex-n
Mínima Mitjana Màxima Mínima Mitjana Màxima n
0 a 1
P0 max
mm 5'
Dades mensuals acumulades fins l'últim dia disponible
03/2020 7,4 12,0 18,3 15,0 11,8 18,5 24,9 17,5 25 71 96 1.001 1.018 1.030   8,6 91,7 103,4
Dades anuals acumulades fins l'últim dia disponible
2020 3,8 10,7 18,3 14,3 11,8 18,3 27,2 23,4 19 72 99 1.001 1.024 1.036   7,2 91,7 239,8
Últims 30 dies disponibles
30-03-2020 9,2     13,3     19,8 10,6 43 73 94 1.014 1.015 1.016 E 8,0 29,0 2,0
29-03-2020 9,2     16,9     21,9 12,7 39 54 78 1.013 1.017 1.020 W 6,4 32,2 0,0
28-03-2020 8,5     12,3     16,8 8,3 48 68 90 1.018 1.019 1.021 W 4,0 24,1 0,0
27-03-2020 8,4     9,9     11,8 3,4 76 86 91 1.013 1.015 1.018 W 3,7 32,2 10,2 0,37 0,80
26-03-2020 7,4     11,3     16,2 8,8 49 75 94 1.009 1.011 1.015 W 5,5 37,0 0,0
25-03-2020 8,8     10,2     13,2 4,4 70 86 93 1.016 1.018 1.019 W 5,1 35,4 14,2 0,26 0,60
24-03-2020 13,1     13,9     14,8 1,7 70 85 96 1.016 1.018 1.019 NE 21,2 48,3 13,0 0,58 2,20
23-03-2020 11,7     13,9     15,9 4,2 81 93 95 1.015 1.017 1.018 NE 6,4 30,6 3,6 0,20
22-03-2020 11,2     12,7     13,9 2,7 84 91 95 1.012 1.014 1.016 NW 5,6 20,9 24,2 0,36 0,90
21-03-2020 11,2     13,0     14,1 2,9 86 90 96 1.013 1.015 1.018 NW 5,1 27,4 15,6 0,42 1,60
20-03-2020 13,5     14,5     16,2 2,7 75 85 91 1.018 1.020 1.021 NE 9,2 25,7 0,0
19-03-2020 12,9     14,3     15,8 2,9 85 90 92 1.021 1.024 1.027 NE 7,4 27,4 0,0
18-03-2020 13,5     14,5     16,4 2,9 74 88 94 1.026 1.028 1.029 NNE 9,7 29,0 0,0
17-03-2020 9,6     12,6     14,8 5,2 90 94 96 1.021 1.025 1.030 NNE 6,9 37,0 17,4 0,17 0,60
16-03-2020 9,6     12,4     16,4 6,8 75 85 92 1.012 1.015 1.021 W 5,8 41,8 3,2 0,20
15-03-2020 12,7     14,9     17,4 4,7 75 85 92 1.015 1.018 1.021 ESE 5,1 32,2 0,0
14-03-2020 11,8     14,6     17,7 5,9 71 85 91 1.020 1.021 1.023 E 3,7 20,9 0,0
13-03-2020 12,9     14,9     17,3 4,4 74 86 92 1.019 1.021 1.023 NNE 6,0 25,7 0,0
12-03-2020 11,9     15,7     19,7 7,8 64 81 94 1.018 1.020 1.024 NE 3,1 22,5 0,0
11-03-2020 12,6     17,0     22,4 9,8 39 68 90 1.022 1.024 1.025 E 3,2 17,7 0,0
10-03-2020 11,9     16,4     21,8 9,9 39 59 76 1.023 1.025 1.028 ESE 3,7 22,5 0,0
09-03-2020 13,5     17,4     22,3 8,8 33 50 81 1.021 1.023 1.025 WNW 7,9 38,6 0,0
08-03-2020 12,3     17,1     22,4 10,1 28 50 75 1.021 1.023 1.026 ESE 5,6 33,8 0,0
07-03-2020 10,8     14,3     19,9 9,1 32 44 63 1.022 1.023 1.025 WNW 12,2 53,1 0,0
06-03-2020 13,2     15,9     19,8 6,6 25 41 62 1.013 1.016 1.023 NW 15,9 57,9 0,0
05-03-2020 16,6     19,8     24,9 8,3 37 48 58 1.009 1.012 1.017 W 14,2 69,2 0,0
04-03-2020 18,3     20,4     23,6 5,3 44 55 65 1.017 1.018 1.020 W 17,9 56,3 0,0
03-03-2020 12,7     16,9     22,2 9,5 36 46 58 1.012 1.016 1.020 W 17,4 70,8 0,0
02-03-2020 14,4     19,2     22,9 8,5 27 42 50 1.001 1.008 1.018 W 20,0 91,7 0,0
01-03-2020 16,5     19,3     23,1 6,6 41 50 60 1.011 1.014 1.017 W 13,0 62,8 0,0
Últims 13 mesos disponibles
02/2020 7,5 11,2 17,2 15,7 14,3 20,5 27,2 19,7 38 69 89 1.015 1.026 1.034 W 5,7 57,9 2,0
01/2020 3,8 8,9 16,8 12,3 12,4 16,1 22,5 18,7 54 75 97 1.016 1.026 1.034 W 7,2 88,5 134,4
12/2019 6,1 12,0 20,2 15,0 14,0 18,5 26,3 20,2 47 69 91 1.003 1.020 1.034 W 10,0 95,0 214,0
11/2019 8,7 13,5 22,7 16,7 15,6 20,4 27,9 19,2 43 55 75 1.000 1.012 1.019 W 12,2 72,4 12,4
10/2019 13,5 17,4 21,4 21,2 17,1 25,0 32,9 19,4 41 66 85 1.009 1.017 1.023 W 5,0 59,5 44,6
09/2019 15,3 21,0 24,3 24,4 23,3 27,6 35,3 20,0 42 74 90 1.011 1.019 1.025 S 6,2 77,8 58,6
08/2019 19,2 23,7 27,3 26,8 24,9 30,4 37,1 17,9 53 74 82 1.011 1.016 1.021 SSE 5,6 55,6 5,2
07/2019 21,3 23,9 26,4 27,0 27,1 30,6 39,2 17,9 43 70 82 1.006 1.015 1.022 SSE 6,3 56,3 0,2
06/2019 14,6 18,9 22,7 22,8 20,3 26,8 33,0 18,4 37 68 84 1.009 1.016 1.023 SSE 6,4 50,0 0,2
05/2019 11,2 15,6 23,2 19,2 17,9 23,5 31,8 20,6 47 68 82 1.006 1.016 1.025 SSE 6,2 56,3 9,0
04/2019 10,0 12,7 15,2 15,9 13,9 19,2 29,2 19,2 37 68 94 1.002 1.014 1.026 SSE 9,1 61,1 216,6
03/2019 8,3 10,8 15,9 15,3 12,1 19,4 28,3 20,0 30 60 90 1.012 1.024 1.031 S 5,8 64,8 35,8
02/2019 6,6 8,9 12,3 13,0 13,3 17,2 22,4 15,8 33 65 83 996 1.026 1.035 S 5,5 79,6 0,0
Tots els anys disponibles
2019 4,2 15,6 27,3 19,2 11,6 22,9 39,2 35,0 30 66 94 996 1.018 1.035 SSE 7,2 95,0 597,8
2018 4,6 15,8 27,7 19,0 8,4 22,6 37,1 32,5 35 67 95 994 1.017 1.036 SSE 6,5 76,0 924,6
2017 1,4 16,3 26,9 19,8 9,6 23,3 39,0 37,6 33 68 93 1.002 1.017 1.038 SE 0,0 97,0 399,0
2016 4,8 16,0 25,6 19,4 12,4 22,8 39,6 34,8 29 66 93 993 1.017 1.036 93,0 543,9
Temperatura (°C)
Humitat relativa (%)
Velocitat del vent i ràfega màxima (km/h)
Direcció del vent (°)
Pressió (hPa)
Precipitació (mm)
Nota sobre les dades: s'avisa a l'usuari de la provisionalitat i no oficialitat d'aquestes dades
Logo AVAMET blanc
Web allotjada a Sollutia
Llicència de Creative CommonsLa web d'AVAMET i els seus continguts estan subjectes a una llicència de
Reconeixement - No Comercial - Compartir igual
Últimes estacions:  Altea - Com. Regants (Soci), Almoines (Inforatge), Beniparrell (Inforatge), Albal (Inforatge), Almussafes - Parc Industrial (Inforatge), La Vilavella (Soci), la Serratella (soci) - - -